createdAt,value
2018-09-12T07:29:05.630Z,4.70
2018-09-12T07:30:06.419Z,5.70
2018-09-12T07:31:07.147Z,5.40
2018-09-12T07:32:12.273Z,5.40
2018-09-12T07:33:20.556Z,5.30
2018-09-12T07:34:21.702Z,5.40
2018-09-12T07:35:44.288Z,5.40
2018-09-12T07:36:45.804Z,5.30
2018-09-12T07:37:50.708Z,5.00
2018-09-12T07:38:51.483Z,5.60
2018-09-12T07:39:52.159Z,5.30
2018-09-12T07:40:54.282Z,5.10
2018-09-12T07:42:13.609Z,5.10
2018-09-12T07:43:20.997Z,5.90
2018-09-12T07:44:31.294Z,5.40
2018-09-12T07:45:43.003Z,5.30
2018-09-12T07:46:43.976Z,5.30
2018-09-12T07:47:45.095Z,5.50
2018-09-12T07:48:46.053Z,5.10
2018-09-12T07:49:48.251Z,4.90
2018-09-12T07:50:51.090Z,4.80
2018-09-12T07:53:39.278Z,5.10
2018-09-12T07:53:41.987Z,5.50
2018-09-12T07:55:14.405Z,4.70
2018-09-12T07:56:43.506Z,4.50
2018-09-12T07:57:46.024Z,4.60
2018-09-12T07:58:55.883Z,5.00
2018-09-12T08:00:13.281Z,4.80
2018-09-12T08:01:14.341Z,4.70
2018-09-12T08:02:21.197Z,4.80
2018-09-12T08:03:22.137Z,5.00
2018-09-12T08:04:23.657Z,4.70
2018-09-12T08:05:46.602Z,4.20
2018-09-12T08:06:49.312Z,4.70
2018-09-12T08:07:51.061Z,4.80
2018-09-12T08:08:51.767Z,4.40
2018-09-12T08:09:54.362Z,4.20
2018-09-12T08:11:03.884Z,4.20
2018-09-12T08:12:05.129Z,4.20
2018-09-12T08:13:05.947Z,4.50
2018-09-12T08:14:06.676Z,4.30
2018-09-12T08:15:07.628Z,4.50
2018-09-12T08:16:18.607Z,4.30
2018-09-12T08:17:28.888Z,4.20
2018-09-12T08:18:29.614Z,4.20
2018-09-12T08:19:36.789Z,4.20
2018-09-12T08:20:46.734Z,4.50
2018-09-12T08:21:47.504Z,4.30
2018-09-12T08:22:54.174Z,4.20
2018-09-12T08:23:59.893Z,4.10
2018-09-12T08:25:04.597Z,4.20
2018-09-12T08:26:11.949Z,4.50
2018-09-12T08:27:13.294Z,4.60
2018-09-12T08:29:05.027Z,4.30
2018-09-12T08:30:21.658Z,4.30
2018-09-12T08:31:22.309Z,4.30
2018-09-12T08:32:23.202Z,4.40
2018-09-12T08:33:23.959Z,4.60
2018-09-12T08:34:24.730Z,5.00
2018-09-12T08:35:30.290Z,4.60
2018-09-12T08:36:34.450Z,4.60
2018-09-12T08:37:38.829Z,4.60
2018-09-12T08:38:40.049Z,4.60
2018-09-12T08:39:41.026Z,4.50
2018-09-12T08:40:41.720Z,4.40
2018-09-12T08:42:03.736Z,4.80
2018-09-12T08:43:07.848Z,4.70
2018-09-12T08:44:08.541Z,4.70
2018-09-12T08:45:09.235Z,4.60
2018-09-12T08:46:13.707Z,4.20
2018-09-12T08:47:17.789Z,4.20
2018-09-12T08:48:18.506Z,4.40
2018-09-12T08:49:19.215Z,4.40
2018-09-12T08:50:19.931Z,4.00
2018-09-12T08:51:21.581Z,4.70
2018-09-12T08:52:24.100Z,4.30
2018-09-12T08:53:25.051Z,4.30
2018-09-12T08:54:33.485Z,4.20
2018-09-12T08:55:34.210Z,4.10
2018-09-12T08:56:34.920Z,4.30
2018-09-12T08:57:35.921Z,4.10
2018-09-12T08:58:36.941Z,4.50
2018-09-12T08:59:37.667Z,4.20
2018-09-12T09:00:47.841Z,4.10
2018-09-12T09:02:09.959Z,4.30
2018-09-12T09:06:55.914Z,4.00
2018-09-12T09:07:56.706Z,4.00
2018-09-12T09:08:57.535Z,3.80
2018-09-12T09:10:14.875Z,4.50
2018-09-12T09:11:15.809Z,4.50
2018-09-12T09:12:16.631Z,4.30
2018-09-12T09:13:17.449Z,4.40
2018-09-12T09:14:19.865Z,4.60
2018-09-12T09:15:47.575Z,4.40
2018-09-12T09:16:48.533Z,4.20
2018-09-12T09:17:51.223Z,4.30
2018-09-12T09:18:53.892Z,4.40
2018-09-12T09:20:01.944Z,4.50
2018-09-12T09:21:02.735Z,4.40
2018-09-12T09:22:11.575Z,4.40
2018-09-12T09:23:12.395Z,4.20
2018-09-12T09:24:13.276Z,4.10
2018-09-12T09:25:17.179Z,4.20
2018-09-12T09:26:25.741Z,4.20
2018-09-12T09:27:30.135Z,4.10
2018-09-12T09:28:31.036Z,4.10
2018-09-12T09:29:45.401Z,4.10
2018-09-12T09:30:46.428Z,4.40
2018-09-12T09:33:44.424Z,4.50
2018-09-12T09:34:45.333Z,4.50
2018-09-12T09:35:54.350Z,4.40
2018-09-12T09:36:55.262Z,4.20
2018-09-12T09:38:10.660Z,4.30
2018-09-12T09:39:11.624Z,4.50
2018-09-12T09:40:12.393Z,4.30
2018-09-12T09:41:13.963Z,4.30
2018-09-12T09:42:14.891Z,4.50
2018-09-12T09:43:15.722Z,4.20
2018-09-12T09:44:16.650Z,4.50
2018-09-12T09:45:23.318Z,4.30
2018-09-12T09:46:24.834Z,4.50
2018-09-12T09:47:36.494Z,5.40
2018-09-12T09:48:41.131Z,5.40
2018-09-12T09:49:43.634Z,5.40
2018-09-12T09:50:46.518Z,5.40
2018-09-12T09:51:47.535Z,5.10
2018-09-12T09:52:55.414Z,5.40
2018-09-12T09:53:56.832Z,4.40
2018-09-12T09:54:57.911Z,4.50
2018-09-12T09:56:03.848Z,4.70
2018-09-12T09:57:10.985Z,4.20
2018-09-12T09:58:18.370Z,4.40
2018-09-12T09:59:22.284Z,4.40
2018-09-12T10:00:23.034Z,4.20
2018-09-12T10:01:23.813Z,4.00
2018-09-12T10:02:28.483Z,3.80
2018-09-12T10:03:30.580Z,4.00
2018-09-12T10:04:31.671Z,4.40
2018-09-12T10:05:35.346Z,4.40
2018-09-12T10:06:36.009Z,4.30
2018-09-12T10:07:47.058Z,4.00
2018-09-12T10:08:47.804Z,4.00
2018-09-12T10:09:54.993Z,3.80
2018-09-12T10:10:55.745Z,4.30
2018-09-12T10:11:56.541Z,4.40
2018-09-12T10:12:57.208Z,3.90
2018-09-12T10:13:59.407Z,4.00
2018-09-12T10:15:16.222Z,3.80
2018-09-12T10:16:17.055Z,4.10
2018-09-12T10:17:17.837Z,3.90
2018-09-12T10:18:18.592Z,3.70
2018-09-12T10:19:19.542Z,3.80
2018-09-12T10:20:20.430Z,4.10
2018-09-12T10:21:21.101Z,4.10
2018-09-12T10:22:21.802Z,4.00
2018-09-12T10:23:22.672Z,3.70
2018-09-12T10:24:23.406Z,4.10
2018-09-12T10:25:25.175Z,3.90
2018-09-12T10:26:29.353Z,3.70
2018-09-12T10:28:32.106Z,3.70
2018-09-12T10:29:32.877Z,3.90
2018-09-12T10:30:33.574Z,3.80
2018-09-12T10:31:37.909Z,3.90
2018-09-12T10:32:38.556Z,3.90
2018-09-12T10:33:39.206Z,3.50
2018-09-12T10:34:39.955Z,3.80
2018-09-12T10:35:40.613Z,4.00
2018-09-12T10:36:41.280Z,4.00
2018-09-12T10:37:42.023Z,4.00
2018-09-12T10:38:44.714Z,3.90
2018-09-12T10:39:45.469Z,3.50
2018-09-12T10:41:00.442Z,3.90
2018-09-12T10:42:01.168Z,3.70
2018-09-12T10:43:01.922Z,4.00
2018-09-12T10:44:06.314Z,3.80
2018-09-12T10:45:10.588Z,3.80
2018-09-12T10:46:11.313Z,3.80
2018-09-12T10:47:11.987Z,3.90
2018-09-12T10:48:12.769Z,4.00
2018-09-12T10:49:13.497Z,3.80
2018-09-12T10:50:14.346Z,3.70
2018-09-12T10:51:15.031Z,3.60
2018-09-12T10:52:15.746Z,3.70
2018-09-12T10:53:16.546Z,3.60
2018-09-12T10:54:21.050Z,3.80
2018-09-12T10:55:21.787Z,3.80
2018-09-12T10:56:22.447Z,3.90
2018-09-12T10:57:26.857Z,3.90
2018-09-12T10:58:27.678Z,3.90
2018-09-12T10:59:28.394Z,3.80
2018-09-12T11:00:29.213Z,3.80
2018-09-12T11:01:36.746Z,3.70
2018-09-12T11:02:37.403Z,3.80
2018-09-12T11:03:38.096Z,3.80
2018-09-12T11:04:45.373Z,3.80
2018-09-12T11:05:46.355Z,3.70
2018-09-12T11:06:47.099Z,4.10
2018-09-12T11:07:49.303Z,3.80
2018-09-12T11:08:50.083Z,3.70
2018-09-12T11:09:50.888Z,3.80
2018-09-12T11:10:51.587Z,3.70
2018-09-12T11:11:52.364Z,4.10
2018-09-12T11:12:53.425Z,4.10
2018-09-12T11:13:54.245Z,4.00
2018-09-12T11:14:55.031Z,3.80
2018-09-12T11:16:31.379Z,3.80
2018-09-12T11:17:32.143Z,3.80
2018-09-12T11:18:32.926Z,3.80
2018-09-12T11:19:33.696Z,3.90
2018-09-12T11:20:45.874Z,4.00
2018-09-12T11:21:46.570Z,4.40
2018-09-12T11:22:50.694Z,3.90
2018-09-12T11:23:51.424Z,3.90
2018-09-12T11:24:52.528Z,4.10
2018-09-12T11:25:53.331Z,4.10
2018-09-12T11:26:56.283Z,3.80
2018-09-12T11:27:56.998Z,3.60
2018-09-12T11:28:57.906Z,3.90
2018-09-12T11:29:58.661Z,4.30
2018-09-12T11:30:59.372Z,4.20
2018-09-12T11:32:06.300Z,4.10
2018-09-12T11:33:12.093Z,4.00
2018-09-12T11:34:15.784Z,4.10
2018-09-12T11:35:18.461Z,4.10
2018-09-12T11:36:28.097Z,3.90
2018-09-12T11:37:28.998Z,3.90
2018-09-12T11:38:31.639Z,3.70
2018-09-12T11:39:32.438Z,3.80
2018-09-12T11:40:33.633Z,4.00
2018-09-12T11:41:38.279Z,3.70
2018-09-12T11:42:39.985Z,3.70
2018-09-12T11:43:40.692Z,3.80
2018-09-12T11:44:48.133Z,3.70
2018-09-12T11:45:48.869Z,3.90
2018-09-12T11:46:56.212Z,4.10
2018-09-12T11:48:00.173Z,4.00
2018-09-12T11:49:01.629Z,4.00
2018-09-12T11:50:02.438Z,4.00
2018-09-12T11:51:04.258Z,3.80
2018-09-12T11:52:04.931Z,3.70
2018-09-12T11:53:05.788Z,3.90
2018-09-12T11:54:06.485Z,3.60
2018-09-12T11:55:11.059Z,3.70
2018-09-12T11:56:15.169Z,3.70
2018-09-12T11:57:15.990Z,3.70
2018-09-12T11:58:16.809Z,4.10
2018-09-12T11:59:17.495Z,4.00
2018-09-12T12:02:40.817Z,4.00
2018-09-12T12:03:41.596Z,4.00
2018-09-12T12:04:44.984Z,3.80
2018-09-12T12:05:56.692Z,3.40
2018-09-12T12:06:58.340Z,4.00
2018-09-12T12:07:59.001Z,4.00
2018-09-12T12:08:59.804Z,3.80
2018-09-12T12:10:00.617Z,3.60
2018-09-12T12:11:01.364Z,4.10
2018-09-12T12:12:02.664Z,3.80
2018-09-12T12:13:03.474Z,3.90
2018-09-12T12:14:05.314Z,3.80
2018-09-12T12:15:06.232Z,4.00
2018-09-12T12:16:07.006Z,3.80
2018-09-12T12:17:11.136Z,3.70
2018-09-12T12:18:14.042Z,3.70
2018-09-12T12:19:14.725Z,3.80
2018-09-12T12:20:27.683Z,3.90
2018-09-12T12:21:30.998Z,3.80
2018-09-12T12:22:32.754Z,4.20
2018-09-12T12:23:36.418Z,3.90
2018-09-12T12:24:42.097Z,4.00
2018-09-12T12:25:43.092Z,4.00
2018-09-12T12:26:45.905Z,4.00
2018-09-12T12:27:46.606Z,3.80
2018-09-12T12:28:50.739Z,3.70
2018-09-12T12:29:52.652Z,3.70
2018-09-12T12:30:53.365Z,3.60
2018-09-12T12:31:55.366Z,3.40
2018-09-12T12:32:56.731Z,3.80
2018-09-12T12:34:00.738Z,3.70
2018-09-12T12:35:01.616Z,3.70
2018-09-12T12:36:03.665Z,3.20
2018-09-12T12:37:10.300Z,3.20
2018-09-12T12:38:13.206Z,3.30
2018-09-12T12:39:13.946Z,3.40
2018-09-12T12:40:18.572Z,3.40
2018-09-12T12:41:40.056Z,3.40
2018-09-12T12:42:44.434Z,3.30
2018-09-12T12:43:45.288Z,3.30
2018-09-12T12:44:47.258Z,3.30
2018-09-12T12:45:48.335Z,3.30
2018-09-12T12:47:04.769Z,3.00
2018-09-12T12:48:05.594Z,3.20
2018-09-12T12:49:06.331Z,3.30
2018-09-12T12:50:08.391Z,3.20
2018-09-12T12:51:10.081Z,3.30
2018-09-12T12:52:16.105Z,3.20
2018-09-12T12:53:18.116Z,3.30
2018-09-12T12:54:19.899Z,3.30
2018-09-12T12:56:21.981Z,3.20
2018-09-12T12:57:22.655Z,3.30
2018-09-12T12:58:23.312Z,3.30
2018-09-12T12:59:25.762Z,3.10
2018-09-12T13:01:26.732Z,3.40
2018-09-12T13:02:28.932Z,3.10
2018-09-12T13:03:31.886Z,3.50
2018-09-12T13:04:32.612Z,3.20
2018-09-12T13:05:46.836Z,3.20
2018-09-12T13:06:53.924Z,3.30
2018-09-12T13:07:54.727Z,3.50
2018-09-12T13:08:55.453Z,3.30
2018-09-12T13:10:14.699Z,3.30
2018-09-12T13:11:15.449Z,3.40
2018-09-12T13:12:16.411Z,3.40
2018-09-12T13:13:18.571Z,3.40
2018-09-12T13:14:19.393Z,3.40
2018-09-12T13:15:21.490Z,3.30
2018-09-12T13:16:22.555Z,3.50
2018-09-12T13:17:23.964Z,3.40
2018-09-12T13:18:28.199Z,3.30
2018-09-12T13:19:28.924Z,3.30
2018-09-12T13:20:29.653Z,3.60
2018-09-12T13:21:32.047Z,3.60
2018-09-12T13:22:38.852Z,3.20
2018-09-12T13:23:39.968Z,3.20
2018-09-12T13:24:40.713Z,3.40
2018-09-12T13:25:41.873Z,3.10
2018-09-12T13:26:43.618Z,3.40
2018-09-12T13:27:48.960Z,3.30
2018-09-12T13:28:53.972Z,3.50
2018-09-12T13:29:54.632Z,3.50
2018-09-12T13:30:55.321Z,3.50
2018-09-12T13:31:56.249Z,3.40
2018-09-12T13:33:29.267Z,3.70
2018-09-12T13:34:43.602Z,3.10
2018-09-12T13:35:48.623Z,3.50
2018-09-12T13:36:56.895Z,3.50
2018-09-12T13:38:06.496Z,3.40
2018-09-12T13:39:08.566Z,3.60
2018-09-12T13:40:09.232Z,3.40
2018-09-12T13:41:09.924Z,3.60
2018-09-12T13:42:10.622Z,3.50
2018-09-12T13:43:33.528Z,3.50
2018-09-12T13:44:43.329Z,3.40
2018-09-12T13:45:44.027Z,3.70
2018-09-12T13:46:45.134Z,3.40
2018-09-12T13:47:46.135Z,3.60
2018-09-12T13:48:46.870Z,3.60
2018-09-12T13:49:47.591Z,3.50
2018-09-12T13:50:48.379Z,3.80
2018-09-12T13:52:01.762Z,3.60
2018-09-12T13:53:02.947Z,3.80
2018-09-12T13:54:03.924Z,3.70
2018-09-12T13:55:04.745Z,3.60
2018-09-12T13:56:05.447Z,3.40
2018-09-12T13:57:06.756Z,3.90
2018-09-12T13:58:08.508Z,3.90
2018-09-12T13:59:09.302Z,3.30
2018-09-12T14:00:10.472Z,3.70
2018-09-12T14:01:11.335Z,3.50
2018-09-12T14:02:12.020Z,3.60
2018-09-12T14:03:14.663Z,3.50
2018-09-12T14:04:15.584Z,3.80
2018-09-12T14:05:23.453Z,3.80
2018-09-12T14:06:24.227Z,3.30
2018-09-12T14:07:25.057Z,3.50
2018-09-12T14:08:34.764Z,3.40
2018-09-12T14:09:38.272Z,3.60
2018-09-12T14:10:39.643Z,3.60
2018-09-12T14:11:41.092Z,3.40
2018-09-12T14:12:43.522Z,3.50
2018-09-12T14:13:46.610Z,3.40
2018-09-12T14:14:48.697Z,3.40
2018-09-12T14:15:50.679Z,3.50
2018-09-12T14:18:41.181Z,3.30
2018-09-12T14:19:43.228Z,3.20
2018-09-12T14:20:43.937Z,3.40
2018-09-12T14:22:05.052Z,3.60
2018-09-12T14:23:13.314Z,3.50
2018-09-12T14:24:15.511Z,3.10
2018-09-12T14:25:32.563Z,3.10
2018-09-12T14:26:33.348Z,3.10
2018-09-12T14:27:36.048Z,3.50
2018-09-12T14:28:44.179Z,3.30
2018-09-12T14:29:59.317Z,3.40
2018-09-12T14:31:00.209Z,3.20
2018-09-12T14:32:01.539Z,3.40
2018-09-12T14:33:08.788Z,3.40
2018-09-12T14:34:20.430Z,3.40
2018-09-12T14:35:29.478Z,3.20
2018-09-12T14:36:31.549Z,3.40
2018-09-12T14:37:33.246Z,3.50
2018-09-12T14:38:33.981Z,3.40
2018-09-12T14:39:36.613Z,3.70
2018-09-12T14:40:37.436Z,3.70
2018-09-12T14:41:38.119Z,3.40
2018-09-12T14:42:38.825Z,3.50
2018-09-12T14:43:40.382Z,3.50
2018-09-12T14:44:41.904Z,3.30
2018-09-12T14:45:42.730Z,3.60
2018-09-12T14:46:43.456Z,3.10
2018-09-12T14:48:06.731Z,3.50
2018-09-12T14:49:07.502Z,3.30
2018-09-12T14:50:08.312Z,3.40
2018-09-12T14:51:09.038Z,3.20
2018-09-12T14:52:09.850Z,3.60
2018-09-12T14:53:10.530Z,3.50
2018-09-12T14:54:11.229Z,3.30
2018-09-12T14:55:11.919Z,3.70
2018-09-12T14:56:12.748Z,3.30
2018-09-12T14:57:13.804Z,3.50
2018-09-12T14:58:20.629Z,3.30
2018-09-12T14:59:22.319Z,3.60
2018-09-12T15:00:23.993Z,3.40
2018-09-12T15:01:24.972Z,3.60
2018-09-12T15:02:42.685Z,3.30
2018-09-12T15:03:43.566Z,3.30
2018-09-12T15:05:44.660Z,3.40
2018-09-12T15:06:45.408Z,3.30
2018-09-12T15:07:46.162Z,3.40
2018-09-12T15:08:46.886Z,3.20
2018-09-12T15:10:13.611Z,3.40
2018-09-12T15:11:14.356Z,3.60
2018-09-12T15:12:15.131Z,3.40
2018-09-12T15:13:15.880Z,3.50
2018-09-12T15:15:18.658Z,3.30
2018-09-12T15:16:19.330Z,3.20
2018-09-12T15:17:33.888Z,3.60
2018-09-12T15:18:34.691Z,3.60
2018-09-12T15:19:35.413Z,3.40
2018-09-12T15:20:43.657Z,3.30
2018-09-12T15:21:45.107Z,3.40
2018-09-12T15:22:45.821Z,3.40
2018-09-12T15:23:52.750Z,3.40
2018-09-12T15:24:53.411Z,3.60
2018-09-12T15:25:54.243Z,3.50
2018-09-12T15:26:54.987Z,3.70
2018-09-12T15:27:55.676Z,3.40
2018-09-12T15:28:57.103Z,3.30
2018-09-12T15:30:04.407Z,3.40
2018-09-12T15:31:09.682Z,3.30
2018-09-12T15:32:12.076Z,3.90
2018-09-12T15:33:16.131Z,3.50
2018-09-12T15:34:16.890Z,3.50
2018-09-12T15:35:17.712Z,3.20
2018-09-12T15:36:19.159Z,3.30
2018-09-12T15:37:34.806Z,3.80
2018-09-12T15:38:35.526Z,3.40
2018-09-12T15:39:43.896Z,3.70
2018-09-12T15:40:44.608Z,3.70
2018-09-12T15:41:51.583Z,3.90
2018-09-12T15:43:13.064Z,3.80
2018-09-12T15:45:14.194Z,3.80
2018-09-12T15:46:15.198Z,3.60
2018-09-12T15:47:16.384Z,3.40
2018-09-12T15:48:17.277Z,3.50
2018-09-12T15:49:22.790Z,3.40
2018-09-12T15:50:23.720Z,3.40
2018-09-12T15:52:24.741Z,3.50
2018-09-12T15:54:36.242Z,3.70
2018-09-12T15:55:36.943Z,3.70
2018-09-12T15:56:38.373Z,3.50
2018-09-12T15:57:41.151Z,3.30
2018-09-12T15:58:41.882Z,3.50
2018-09-12T15:59:42.635Z,3.50
2018-09-12T16:00:58.991Z,3.50
2018-09-12T16:02:00.422Z,3.80
2018-09-12T16:03:04.742Z,3.40
2018-09-12T16:04:10.846Z,3.50
2018-09-12T16:05:13.258Z,3.90
2018-09-12T16:06:22.661Z,3.60
2018-09-12T16:07:23.378Z,3.80
2018-09-12T16:08:51.836Z,3.40
2018-09-12T16:09:57.580Z,3.40
2018-09-12T16:11:04.870Z,3.40
2018-09-12T16:12:06.304Z,3.60
2018-09-12T16:13:09.637Z,3.50
2018-09-12T16:14:18.494Z,3.50
2018-09-12T16:15:30.261Z,3.70
2018-09-12T16:16:31.115Z,3.60
2018-09-12T16:17:32.076Z,3.60
2018-09-12T16:18:32.794Z,3.70
2018-09-12T16:19:35.319Z,3.90
2018-09-12T16:20:36.061Z,3.80
2018-09-12T16:21:36.868Z,3.50
2018-09-12T16:22:47.593Z,3.60
2018-09-12T16:24:01.733Z,3.70
2018-09-12T16:25:02.529Z,3.30
2018-09-12T16:26:04.478Z,3.60
2018-09-12T16:27:05.222Z,3.60
2018-09-12T16:28:13.276Z,3.60
2018-09-12T16:29:14.189Z,3.80
2018-09-12T16:30:33.850Z,3.80
2018-09-12T16:31:34.594Z,3.80
2018-09-12T16:32:35.412Z,3.80
2018-09-12T16:33:36.115Z,3.70
2018-09-12T16:34:36.916Z,3.50
2018-09-12T16:36:06.702Z,3.50
2018-09-12T16:37:07.704Z,3.50
2018-09-12T16:38:08.458Z,3.60
2018-09-12T16:39:09.255Z,3.50
2018-09-12T16:40:13.515Z,3.70
2018-09-12T16:41:14.290Z,3.80
2018-09-12T16:42:14.993Z,3.60
2018-09-12T16:43:16.620Z,3.80
2018-09-12T16:44:17.340Z,3.80
2018-09-12T16:45:18.036Z,3.70
2018-09-12T16:47:24.547Z,3.80
2018-09-12T16:48:30.880Z,3.80
2018-09-12T16:49:32.042Z,3.80
2018-09-12T16:50:33.084Z,3.80
2018-09-12T16:51:34.276Z,3.70
2018-09-12T16:52:35.036Z,3.90
2018-09-12T16:54:02.223Z,3.90
2018-09-12T16:55:05.304Z,3.90
2018-09-12T16:56:06.278Z,4.30
2018-09-12T16:57:07.217Z,3.70
2018-09-12T16:58:08.989Z,3.90
2018-09-12T16:59:09.826Z,3.70
2018-09-12T17:00:10.553Z,3.70
2018-09-12T17:01:11.376Z,4.00
2018-09-12T17:02:23.020Z,4.10
2018-09-12T17:03:37.301Z,4.10
2018-09-12T17:04:52.680Z,4.10
2018-09-12T17:05:53.479Z,3.80
2018-09-12T17:07:00.722Z,3.90
2018-09-12T17:08:02.807Z,3.90
2018-09-12T17:09:04.836Z,4.10
2018-09-12T17:10:05.610Z,3.80
2018-09-12T17:11:08.278Z,3.90
2018-09-12T17:12:14.490Z,3.90
2018-09-12T17:13:25.566Z,4.00
2018-09-12T17:14:27.710Z,4.00
2018-09-12T17:15:28.790Z,3.60
2018-09-12T17:16:30.209Z,3.90
2018-09-12T17:17:31.022Z,4.10
2018-09-12T17:19:33.878Z,3.90
2018-09-12T17:20:38.365Z,4.00
2018-09-12T17:21:39.122Z,4.00
2018-09-12T17:22:44.714Z,4.00
2018-09-12T17:24:13.029Z,3.70
2018-09-12T17:25:13.699Z,3.70
2018-09-12T17:26:15.638Z,3.80
2018-09-12T17:27:16.374Z,4.30
2018-09-12T17:28:17.914Z,4.20
2018-09-12T17:29:29.631Z,3.90
2018-09-12T17:30:36.522Z,4.10
2018-09-12T17:31:37.590Z,4.20
2018-09-12T17:32:38.574Z,4.80
2018-09-12T17:33:43.252Z,4.70
2018-09-12T17:34:45.264Z,4.70
2018-09-12T17:36:00.226Z,4.80
2018-09-12T17:37:14.658Z,4.50
2018-09-12T17:38:28.917Z,4.10
2018-09-12T17:39:33.053Z,4.10
2018-09-12T17:40:36.095Z,4.10
2018-09-12T17:41:40.556Z,4.10
2018-09-12T17:42:41.457Z,4.10
2018-09-12T17:43:43.912Z,4.40
2018-09-12T17:44:44.710Z,4.20
2018-09-12T17:45:45.556Z,4.10
2018-09-12T17:46:46.354Z,4.20
2018-09-12T17:47:47.130Z,3.90
2018-09-12T17:48:47.936Z,4.10
2018-09-12T17:49:53.106Z,4.10
2018-09-12T17:51:02.117Z,4.70
2018-09-12T17:53:03.214Z,4.30
2018-09-12T17:54:04.585Z,4.10
2018-09-12T17:55:17.360Z,4.20
2018-09-12T17:56:22.053Z,4.30
2018-09-12T17:57:30.767Z,4.30
2018-09-12T17:58:32.497Z,4.40
2018-09-12T17:59:33.651Z,4.30
2018-09-12T18:00:35.411Z,4.30
2018-09-12T18:01:37.978Z,4.30
2018-09-12T18:02:39.564Z,4.30
2018-09-12T18:03:41.211Z,4.30
2018-09-12T18:04:42.073Z,4.20
2018-09-12T18:06:05.153Z,4.30
2018-09-12T18:07:06.219Z,4.00
2018-09-12T18:08:08.479Z,4.40
2018-09-12T18:09:10.515Z,4.10
2018-09-12T18:10:11.426Z,4.30
2018-09-12T18:11:44.801Z,4.30
2018-09-12T18:13:07.160Z,4.20
2018-09-12T18:14:10.244Z,4.40
2018-09-12T18:15:14.785Z,4.40
2018-09-12T18:16:17.343Z,4.40
2018-09-12T18:17:22.247Z,4.30
2018-09-12T18:18:24.324Z,4.30
2018-09-12T18:19:36.698Z,4.20
2018-09-12T18:20:40.653Z,4.00
2018-09-12T18:21:41.584Z,4.10
2018-09-12T18:22:43.969Z,3.90
2018-09-12T18:23:46.875Z,3.90
2018-09-12T18:24:50.350Z,4.10
2018-09-12T18:26:51.585Z,4.10
2018-09-12T18:27:56.280Z,4.00
2018-09-12T18:28:59.650Z,4.10
2018-09-12T18:30:01.528Z,3.90
2018-09-12T18:31:04.390Z,3.80
2018-09-12T18:32:37.597Z,3.90
2018-09-12T18:33:41.380Z,3.80
2018-09-12T18:34:42.348Z,3.80
2018-09-12T18:35:44.324Z,3.80
2018-09-12T18:36:45.087Z,4.30
2018-09-12T18:37:46.369Z,4.10
2018-09-12T18:38:48.655Z,4.10
2018-09-12T18:39:50.729Z,4.30
2018-09-12T18:40:52.919Z,4.00
2018-09-12T18:41:53.811Z,4.30
2018-09-12T18:43:16.167Z,4.30
2018-09-12T18:44:16.857Z,4.10
2018-09-12T18:45:17.516Z,4.20
2018-09-12T18:46:19.084Z,4.10
2018-09-12T18:47:20.912Z,4.00
2018-09-12T18:48:31.740Z,4.30
2018-09-12T18:49:37.139Z,4.10
